• Join FlightAware (Why Join?)
  • Login
  • US Flag 
01:18AM EST


 

Airport Tracker/Info


-or-


 

Live Flight TrackerFlight Track Log ✈ UAL4422 ✈ 20-Apr-2013 ✈ KPBI - KIAH

Flight Track Log - Related Links

Times and Time Zones

All times are in EDT time to prevent confusion due to time zone crossing. See the UAL4422 flight status page for this flight to view local times or setup timezone preferences in your user account.

Time Position Orientation Groundspeed Altitude Reporting Facility
EDT Latitude Longitude Course Direction KTS MPH feet Rate Location/Type
12:44PM 26.7775 -80.0050 357° North 225 259 5,900  Level Miami Center
12:45PM 26.8290 -80.1816 278° West  Level FlightAware Approximate
12:45PM 26.8181 -80.0667 306° West 211 243 8,500  Level Miami Center
12:46PM 26.8500 -80.2860 270° West  Level FlightAware Approximate
12:46PM 26.8353 -80.1322 286° West 206 237 11,000  Level Miami Center
12:47PM 26.9143 -80.3488 336° Northwest  Level FlightAware Approximate
12:47PM 26.8442 -80.2022 278° West 241 277 12,000  Level Miami Center
12:48PM 27.0036 -80.3934 336° Northwest  Level FlightAware Approximate
12:48PM 26.8608 -80.2983 281° West 299 344 12,000  Level Miami Center
12:49PM 26.9250 -80.3981 306° West 342 394 14,100 1,560 Climbing Miami Center
12:50PM 26.9833 -80.4883 306° West 361 415 15,200 1,020 Climbing Miami Center
12:51PM 27.0458 -80.5811 307° West 367 422 16,200 900 Climbing Miami Center
12:52PM 27.1022 -80.6647 307° West 372 428 17,100 840 Climbing Miami Center
12:53PM 27.1722 -80.7719 306° West 378 435 17,900 960 Climbing Miami Center
12:54PM 27.2303 -80.8628 306° West 389 448 19,100 1,080 Climbing Miami Center
12:55PM 27.2967 -80.9608 307° West 389 448 20,100 1,020 Climbing Miami Center
12:56PM 27.3625 -81.0589 307° West 389 448 21,200 1,080 Climbing Miami Center
12:57PM 27.4286 -81.1597 306° West 389 448 22,300 1,140 Climbing Miami Center
12:58PM 27.4925 -81.2581 306° West 389 448 23,500 1,260 Climbing Miami Center
12:59PM 27.5561 -81.3542 307° West 389 448 24,900 1,380 Climbing Miami Center
01:00PM 27.6219 -81.4528 307° West 382 440 26,300 1,320 Climbing Miami Center
01:01PM 27.6836 -81.5467 307° West 375 432 27,600 1,440 Climbing Miami Center
01:02PM 27.7353 -81.6283 306° West 365 420 29,200 1,560 Climbing Miami Center
01:03PM 27.7908 -81.7153 306° West 354 407 30,800 1,320 Climbing Miami Center
01:04PM 27.8892 -81.8594 308° West 349 402 32,800 960 Climbing Jacksonville Center
01:05PM 27.9442 -81.9458 306° West 344 396 33,500 600 Climbing Jacksonville Center
01:06PM 28.0053 -82.0300 309° West 344 396 34,000 240 Climbing Jacksonville Center
01:07PM 28.0703 -82.1164 310° West 351 404 34,000 360 Level Jacksonville Center
01:08PM 28.1169 -82.2172 298° West 357 411 34,800 840 Climbing Jacksonville Center
01:09PM 28.1611 -82.3158 297° West 362 417 35,700 600 Climbing Jacksonville Center
01:10PM 28.2053 -82.4144 297° West 351 404 36,000 120 Climbing Jacksonville Center
01:11PM 28.2494 -82.5086 298° West 363 418 36,000  Level Jacksonville Center
01:12PM 28.2978 -82.6167 297° West 374 430 36,000  Level Jacksonville Center
01:13PM 28.3461 -82.7228 297° West 380 437 36,000 -60 Level Jacksonville Center
01:14PM 28.3961 -82.8336 297° West 386 444 35,900  Descending Jacksonville Center
01:15PM 28.4461 -82.9444 297° West 386 444 36,000  Climbing Jacksonville Center
01:16PM 28.4919 -83.0508 296° West 380 437 36,000 -60 Level Jacksonville Center
01:17PM 28.5378 -83.1550 297° West 380 437 35,900  Descending Jacksonville Center
01:18PM 28.5875 -83.2661 297° West 385 443 36,000  Climbing Jacksonville Center
01:19PM 28.6372 -83.3750 298° West 385 443 36,000  Level Jacksonville Center
01:20PM 28.6911 -83.4961 297° West 385 443 36,000  Level Jacksonville Center
01:21PM 28.7428 -83.6125 297° West 391 450 36,000  Level Jacksonville Center
01:22PM 28.7942 -83.7289 297° West 397 457 36,000  Level Jacksonville Center
01:23PM 28.8456 -83.8456 297° West 407 468 36,000  Level Jacksonville Center
01:24PM 28.8989 -83.9622 298° West 407 468 36,000  Level Jacksonville Center
01:25PM 28.9458 -84.0742 296° West 402 463 36,000  Level Jacksonville Center
01:26PM 28.9969 -84.1889 297° West 402 463 36,000  Level Jacksonville Center
01:27PM 29.0478 -84.3033 297° West 402 463 36,000  Level Jacksonville Center
01:28PM 29.0822 -84.4181 289° West 402 463 36,000 -60 Level Jacksonville Center
01:29PM 29.0953 -84.5369 277° West 384 442 35,900  Descending Jacksonville Center
01:30PM 29.1042 -84.6583 275° West 379 436 36,000  Climbing Jacksonville Center
01:31PM 29.1192 -84.7775 278° West 379 436 36,000  Level Jacksonville Center
01:32PM 29.1319 -84.8942 277° West 379 436 36,000  Level Jacksonville Center
01:33PM 29.1425 -85.0156 276° West 379 436 36,000 -60 Level Jacksonville Center
01:34PM 29.1550 -85.1325 277° West 384 442 35,900  Descending Jacksonville Center
01:35PM 29.1675 -85.2539 277° West 384 442 36,000  Climbing Jacksonville Center
01:36PM 29.1778 -85.3731 276° West 384 442 36,000 -60 Level Jacksonville Center
01:37PM 29.1900 -85.4900 277° West 384 442 35,900  Descending Jacksonville Center
01:38PM 29.2022 -85.6092 277° West 384 442 36,000  Climbing Jacksonville Center
01:39PM 29.2122 -85.7261 276° West 384 442 35,900  Descending Jacksonville Center
01:40PM 29.2242 -85.8406 277° West 384 442 36,000  Climbing Jacksonville Center
01:41PM 29.2339 -85.9575 275° West 379 436 36,000  Level Jacksonville Center
01:42PM 29.2456 -86.0767 276° West 379 436 36,000  Level Jacksonville Center
01:43PM 29.2553 -86.1961 275° West 379 436 36,000  Level Jacksonville Center
01:44PM 29.2667 -86.3156 276° West 379 436 36,000  Level Jacksonville Center
01:45PM 29.2758 -86.4347 275° West 379 436 36,000  Level Jacksonville Center
01:46PM 29.2872 -86.5542 276° West 379 436 36,000  Level Jacksonville Center
01:47PM 29.3006 -86.6714 277° West 384 442 36,000  Level Jacksonville Center
01:48PM 29.3094 -86.7908 275° West 384 442 36,000  Level Jacksonville Center
01:49PM 29.3203 -86.9103 276° West 379 436 36,000  Level Jacksonville Center
01:50PM 29.3311 -87.0297 276° West 379 436 36,000  Level Jacksonville Center
01:51PM 29.3378 -87.1444 274° West 379 436 36,000  Level Jacksonville Center
01:54PM 29.3603 -87.4111 276° West 385 443 36,000  Level Houston Center
01:55PM 29.3700 -87.5406 275° West 383 441 36,000  Level Houston Center
01:56PM 29.3800 -87.6639 275° West 387 445 36,000  Level Houston Center
01:57PM 29.3883 -87.7878 274° West 389 448 36,000  Level Houston Center
01:58PM 29.3978 -87.9119 275° West 392 451 36,000  Level Houston Center
01:59PM 29.4069 -88.0364 275° West 392 451 36,000  Level Houston Center
02:00PM 29.4103 -88.1606 272° West 389 448 36,000  Level Houston Center
02:01PM 29.4147 -88.3069 272° West 384 442 36,000  Level Houston Center
02:02PM 29.4164 -88.4158 271° West 385 443 36,000  Level Houston Center
02:03PM 29.4200 -88.5372 272° West 383 441 36,000  Level Houston Center
02:04PM 29.4239 -88.6825 272° West 382 440 36,000  Level Houston Center
02:05PM 29.4267 -88.8050 272° West 382 440 36,000  Level Houston Center
02:06PM 29.4283 -88.9281 271° West 386 444 36,000  Level Houston Center
02:07PM 29.4306 -89.0492 271° West 383 441 36,000  Level Houston Center
02:08PM 29.4339 -89.1728 272° West 387 445 36,000  Level Houston Center
02:09PM 29.4356 -89.2964 271° West 389 448 36,000  Level Houston Center
02:10PM 29.4381 -89.4467 271° West 391 450 36,000  Level Houston Center
02:11PM 29.4406 -89.5711 271° West 391 450 36,000  Level Houston Center
02:12PM 29.4422 -89.6953 271° West 390 449 36,000  Level Houston Center
02:13PM 29.4439 -89.8200 271° West 390 449 36,000  Level Houston Center
02:14PM 29.4461 -89.9447 271° West 392 451 36,000  Level Houston Center
02:15PM 29.4467 -90.0692 270° West 390 449 36,000 -60 Level Houston Center
02:16PM 29.4489 -90.1939 271° West 392 451 35,900  Descending Houston Center
02:17PM 29.4508 -90.3431 271° West 391 450 36,000  Climbing Houston Center
02:19PM 29.4517 -90.4678 270° West 391 450 36,000  Level Houston Center
02:20PM 29.4531 -90.5928 271° West 393 452 36,000  Level Houston Center
02:21PM 29.4536 -90.7156 270° West 388 447 36,000  Level Houston Center
02:22PM 29.4553 -90.8425 271° West 395 455 36,000  Level Houston Center
02:23PM 29.4553 -90.9650 270° West 387 445 36,000  Level Houston Center
02:24PM 29.4567 -91.1083 271° West 376 433 36,000  Level Houston Center
02:25PM 29.4572 -91.2269 270° West 375 432 36,000  Level Houston Center
02:26PM 29.4572 -91.3422 270° West 364 419 36,000  Level Houston Center
02:27PM 29.4581 -91.4561 271° West 360 414 36,000  Level Houston Center
02:28PM 29.4581 -91.5722 270° West 362 417 36,000  Level Houston Center
02:29PM 29.4578 -91.6875 270° West 361 415 36,000  Level Houston Center
02:30PM 29.4578 -91.8103 270° West 364 419 36,000  Level Houston Center
02:31PM 29.4583 -91.9258 270° West 363 418 36,000  Level Houston Center
02:32PM 29.4578 -92.0628 270° West 359 413 36,000  Level Houston Center
02:33PM 29.4586 -92.1789 271° West 362 417 36,000  Level Houston Center
02:34PM 29.4569 -92.2953 269° West 365 420 36,000 -60 Level Houston Center
02:35PM 29.4569 -92.4117 270° West 365 420 35,900  Descending Houston Center
02:36PM 29.4592 -92.5278 271° West 365 420 36,000  Climbing Houston Center
02:37PM 29.4647 -92.6428 273° West 363 418 36,000  Level Houston Center
02:38PM 29.4700 -92.7592 273° West 366 421 36,000 -300 Level Houston Center
02:39PM 29.4767 -92.9000 273° West 367 422 35,500 -1,260 Descending Houston Center
02:40PM 29.4822 -93.0231 273° West 384 442 33,500 -2,040 Descending Houston Center
02:41PM 29.4878 -93.1478 273° West 390 449 31,400 -2,100 Descending Houston Center
02:42PM 29.4925 -93.2772 272° West 404 465 29,200 -2,100 Descending Houston Center
02:43PM 29.4981 -93.4089 273° West 411 473 27,100 -2,100 Descending Houston Center
02:44PM 29.5033 -93.5356 273° West 399 459 24,900 -2,040 Descending Houston Center
02:45PM 29.5078 -93.6544 272° West 377 434 22,900 -2,220 Descending Houston Center
02:46PM 29.5133 -93.7947 273° West 367 422 20,400 -2,220 Descending Houston Center
02:47PM 29.5175 -93.9119 272° West 367 422 18,300 -1,860 Descending Houston Center
02:48PM 29.5222 -94.0269 273° West 362 417 16,600 -2,340 Descending Houston Center
02:49PM 29.5258 -94.1347 272° West 355 409 14,000 -2,100 Descending Houston Center
02:50PM 29.5286 -94.2256 272° West 350 403 13,100 -900 Descending Houston Center
02:51PM 29.5303 -94.2614 273° West 350 403 13,000 -120 Descending Houston Center
02:51PM 29.5342 -94.3428 273° West 353 406 13,000 -120 Level Houston Center
02:52PM 29.5458 -94.3733 294° West 367 422 12,900 -1,380 Descending Houston Center
02:52PM 29.5783 -94.4500 296° West 367 422 11,600 -1,860 Descending Houston Center
02:53PM 29.5925 -94.4794 299° West 373 429 11,000 -1,500 Descending Houston Center
02:53PM 29.6247 -94.5569 296° West 366 421 10,100 -1,020 Descending Houston Center
02:54PM 29.6356 -94.5831 296° West 366 421 10,000 -180 Descending Houston Center
02:54PM 29.6739 -94.6733 296° West 358 412 9,900  Descending Houston Center
02:55PM 29.6800 -94.6853 300° West 361 415 10,000  Climbing Houston Center
02:55PM 29.7122 -94.7672 294° West 360 414 9,900  Descending Houston Center
02:56PM 29.7311 -94.8067 299° West 356 410 10,000 -540 Climbing Houston Center
02:56PM 29.7503 -94.8564 294° West 273 314 9,400 -1,200 Descending Houston Center
02:57PM 29.7644 -94.8881 297° West 286 329 8,800 -1,980 Descending Houston Center
02:57PM 29.7850 -94.9364 296° West 274 315 7,400 -1,860 Descending Houston Center
02:58PM 29.7969 -94.9642 296° West 275 316 6,900 -1,380 Descending Houston Center
02:58PM 29.8181 -95.0189 294° West 273 314 6,000 -900 Descending Houston Center
02:59PM 29.8300 -95.0422 301° West 275 316 6,000  Level Houston Center
02:59PM 29.8528 -95.0964 296° West 272 313 6,000 60 Level Houston Center
03:00PM 29.8633 -95.1189 298° West 271 312 6,100  Climbing Houston Center
03:00PM 29.8906 -95.1858 295° West 272 313 6,000 -120 Descending Houston Center
03:01PM 29.8997 -95.2133 291° West 272 313 6,000  Level Houston Center
03:01PM 29.8997 -95.2642 270° West 268 308 6,000  Level Houston Center
03:02PM 29.9000 -95.2997 271° West 275 316 6,000  Level Houston Center
03:02PM 29.8994 -95.3511 269° West 272 313 6,000 60 Level Houston Center
03:03PM 29.9006 -95.3856 272° West 270 311 6,100 -120 Climbing Houston Center
03:04PM 29.8994 -95.4450 269° West 240 276 5,900 -600 Descending Houston Center
03:04PM 29.9008 -95.4658 274° West 260 299 5,500 -1,680 Descending Houston Center
03:04PM 29.9011 -95.5075 270° West 217 250 4,400 -1,620 Descending Houston Center
03:05PM 29.9006 -95.5367 269° West 232 267 3,900 -1,380 Descending Houston Center
03:05PM 29.9178 -95.5778 296° West 226 260 3,000 -1,020 Descending Houston Center
03:06PM 29.9500 -95.5858 348° North 223 257 2,900 -120 Descending Houston Center
03:07PM 29.9797 -95.5875 357° North 195 224 2,900 60 Level Houston Center
03:07PM 29.9919 -95.5636 59° Northeast 204 235 3,000 60 Climbing Houston Center
03:08PM 29.9914 -95.5331 91° East 176 203 3,000 -420 Level Houston Center
03:08PM 29.9933 -95.5058 85° East 187 215 2,600 -900 Descending Houston Center